createdAt,value
2018-07-27T00:00:29.058Z,0
2018-07-27T00:01:30.695Z,0
2018-07-27T00:02:32.336Z,0
2018-07-27T00:03:33.987Z,0
2018-07-27T00:04:35.644Z,0
2018-07-27T00:05:37.277Z,0
2018-07-27T00:06:38.914Z,0
2018-07-27T00:07:40.556Z,0
2018-07-27T00:08:42.204Z,0
2018-07-27T00:09:43.837Z,0
2018-07-27T00:10:45.477Z,0
2018-07-27T00:11:47.121Z,0
2018-07-27T00:12:48.765Z,0
2018-07-27T00:13:50.414Z,0
2018-07-27T00:14:52.058Z,0
2018-07-27T00:15:53.699Z,0
2018-07-27T00:16:55.335Z,0
2018-07-27T00:17:56.976Z,0
2018-07-27T00:18:58.618Z,0
2018-07-27T00:20:00.259Z,0
2018-07-27T00:21:01.904Z,0
2018-07-27T00:22:03.538Z,0
2018-07-27T00:23:05.178Z,0
2018-07-27T00:24:06.819Z,0
2018-07-27T00:25:08.464Z,0
2018-07-27T00:26:10.103Z,0
2018-07-27T00:27:11.746Z,0
2018-07-27T00:28:13.393Z,0
2018-07-27T00:29:15.025Z,0
2018-07-27T00:30:16.674Z,0
2018-07-27T00:31:18.315Z,0
2018-07-27T00:32:19.957Z,0
2018-07-27T00:33:21.592Z,0
2018-07-27T00:34:23.244Z,0
2018-07-27T00:35:24.889Z,0
2018-07-27T00:36:26.534Z,0
2018-07-27T00:37:28.166Z,0
2018-07-27T00:38:29.799Z,0
2018-07-27T00:39:31.446Z,0
2018-07-27T00:40:33.089Z,0
2018-07-27T00:41:34.730Z,0
2018-07-27T00:42:36.376Z,0
2018-07-27T00:43:38.025Z,0
2018-07-27T00:44:39.671Z,0
2018-07-27T00:45:41.304Z,0
2018-07-27T00:46:42.941Z,0
2018-07-27T00:47:44.589Z,0
2018-07-27T00:48:46.236Z,0
2018-07-27T00:49:47.877Z,0
2018-07-27T00:50:49.525Z,0
2018-07-27T00:51:51.166Z,0
2018-07-27T00:52:52.805Z,0
2018-07-27T00:53:54.447Z,0
2018-07-27T00:54:56.082Z,0
2018-07-27T00:55:57.721Z,0
2018-07-27T00:56:59.366Z,0
2018-07-27T00:58:01.005Z,0
2018-07-27T00:59:02.643Z,0
2018-07-27T01:00:04.282Z,0
2018-07-27T01:01:05.925Z,0
2018-07-27T01:02:07.562Z,0
2018-07-27T01:03:09.206Z,0
2018-07-27T01:04:10.837Z,0
2018-07-27T01:05:12.481Z,0
2018-07-27T01:06:14.118Z,0
2018-07-27T01:07:15.761Z,0
2018-07-27T01:08:17.406Z,0
2018-07-27T01:09:19.044Z,0
2018-07-27T01:10:20.687Z,0
2018-07-27T01:11:22.325Z,0
2018-07-27T01:12:23.967Z,0
2018-07-27T01:13:25.604Z,0
2018-07-27T01:14:27.259Z,0
2018-07-27T01:15:28.897Z,0
2018-07-27T01:16:30.540Z,0
2018-07-27T01:17:32.173Z,0
2018-07-27T01:18:33.816Z,0
2018-07-27T01:19:35.456Z,0
2018-07-27T01:20:37.094Z,0
2018-07-27T01:21:38.749Z,0
2018-07-27T01:22:40.371Z,0
2018-07-27T01:23:42.013Z,0
2018-07-27T01:24:43.652Z,0
2018-07-27T01:25:45.301Z,0
2018-07-27T01:26:47.755Z,0
2018-07-27T01:27:49.388Z,0
2018-07-27T01:28:51.022Z,0
2018-07-27T01:29:52.664Z,0
2018-07-27T01:30:54.302Z,0
2018-07-27T01:31:55.944Z,0
2018-07-27T01:32:57.585Z,0
2018-07-27T01:33:59.223Z,0
2018-07-27T01:35:00.866Z,0
2018-07-27T01:36:02.513Z,0
2018-07-27T01:37:04.154Z,0
2018-07-27T01:38:05.797Z,0
2018-07-27T01:39:07.442Z,0
2018-07-27T01:40:09.089Z,0
2018-07-27T01:41:10.731Z,0
2018-07-27T01:42:12.376Z,0
2018-07-27T01:43:14.016Z,0
2018-07-27T01:44:15.660Z,0
2018-07-27T01:45:17.293Z,0
2018-07-27T01:46:18.939Z,0
2018-07-27T01:47:20.590Z,0
2018-07-27T01:48:22.232Z,0
2018-07-27T01:49:23.867Z,0
2018-07-27T01:50:25.510Z,0
2018-07-27T01:51:27.171Z,0
2018-07-27T01:52:28.811Z,0
2018-07-27T01:53:30.457Z,0
2018-07-27T01:54:32.093Z,0
2018-07-27T02:01:13.275Z,0
2018-07-27T02:02:14.903Z,0
2018-07-27T02:04:07.563Z,0
2018-07-27T02:05:09.191Z,0
2018-07-27T02:07:01.136Z,0
2018-07-27T02:08:02.774Z,0
2018-07-27T02:09:04.422Z,0
2018-07-27T02:10:06.060Z,0
2018-07-27T02:11:07.713Z,0
2018-07-27T02:12:09.353Z,0
2018-07-27T02:13:11.001Z,0
2018-07-27T02:14:12.635Z,0
2018-07-27T02:15:14.270Z,0
2018-07-27T02:16:15.906Z,0
2018-07-27T02:17:17.546Z,0
2018-07-27T02:18:19.183Z,0
2018-07-27T02:19:20.825Z,0
2018-07-27T02:20:22.467Z,0
2018-07-27T02:21:24.098Z,0
2018-07-27T02:22:25.768Z,0
2018-07-27T02:23:27.409Z,0
2018-07-27T02:24:29.047Z,0
2018-07-27T02:25:30.683Z,0
2018-07-27T02:26:32.335Z,0
2018-07-27T02:27:33.969Z,0
2018-07-27T02:28:35.614Z,0
2018-07-27T02:29:37.260Z,0
2018-07-27T02:30:38.900Z,0
2018-07-27T02:31:40.538Z,0
2018-07-27T02:32:42.180Z,0
2018-07-27T02:33:43.876Z,0
2018-07-27T02:34:45.451Z,0
2018-07-27T02:35:47.104Z,0
2018-07-27T02:36:48.749Z,0
2018-07-27T02:37:50.378Z,0
2018-07-27T02:38:52.016Z,0
2018-07-27T02:39:53.692Z,0
2018-07-27T02:40:55.293Z,0
2018-07-27T02:41:56.937Z,0
2018-07-27T02:42:58.583Z,0
2018-07-27T02:44:00.215Z,0
2018-07-27T02:45:01.848Z,0
2018-07-27T02:46:03.497Z,0
2018-07-27T02:47:05.127Z,0
2018-07-27T02:48:06.770Z,0
2018-07-27T02:49:08.419Z,0
2018-07-27T02:50:10.053Z,0
2018-07-27T02:51:11.718Z,0
2018-07-27T02:52:13.323Z,0
2018-07-27T02:53:14.962Z,0
2018-07-27T02:54:16.605Z,0
2018-07-27T02:55:18.249Z,0
2018-07-27T02:56:19.885Z,0
2018-07-27T02:57:22.245Z,0
2018-07-27T02:58:23.880Z,0
2018-07-27T02:59:25.515Z,0
2018-07-27T03:00:27.166Z,0
2018-07-27T03:01:28.808Z,4
2018-07-27T03:02:30.445Z,4
2018-07-27T03:03:32.094Z,0
2018-07-27T03:04:33.742Z,4
2018-07-27T03:05:35.381Z,4
2018-07-27T03:06:37.015Z,4
2018-07-27T03:07:39.276Z,4
2018-07-27T03:08:40.923Z,4
2018-07-27T03:09:42.591Z,8
2018-07-27T03:10:44.166Z,8
2018-07-27T03:11:45.805Z,8
2018-07-27T03:12:47.440Z,8
2018-07-27T03:13:49.086Z,12
2018-07-27T03:14:50.732Z,16
2018-07-27T03:15:52.379Z,16
2018-07-27T03:16:54.022Z,16
2018-07-27T03:17:55.669Z,20
2018-07-27T03:18:57.312Z,24
2018-07-27T03:19:58.958Z,28
2018-07-27T03:21:00.588Z,32
2018-07-27T03:22:02.228Z,36
2018-07-27T03:23:03.869Z,44
2018-07-27T03:24:05.898Z,48
2018-07-27T03:25:07.535Z,56
2018-07-27T03:26:09.182Z,68
2018-07-27T03:27:10.821Z,72
2018-07-27T03:28:12.457Z,84
2018-07-27T03:29:14.097Z,92
2018-07-27T03:30:15.737Z,108
2018-07-27T03:31:17.383Z,120
2018-07-27T03:32:19.023Z,136
2018-07-27T03:33:20.666Z,152
2018-07-27T03:34:22.310Z,168
2018-07-27T03:35:23.961Z,188
2018-07-27T03:36:25.602Z,204
2018-07-27T03:37:27.246Z,228
2018-07-27T03:38:28.918Z,252
2018-07-27T03:39:30.564Z,280
2018-07-27T03:40:32.223Z,304
2018-07-27T03:41:33.854Z,332
2018-07-27T03:42:35.498Z,360
2018-07-27T03:43:37.148Z,392
2018-07-27T03:44:38.807Z,424
2018-07-27T03:45:40.440Z,460
2018-07-27T03:46:42.088Z,496
2018-07-27T03:47:43.729Z,536
2018-07-27T03:48:45.363Z,572
2018-07-27T03:49:47.001Z,612
2018-07-27T03:50:48.648Z,656
2018-07-27T03:51:50.288Z,704
2018-07-27T03:52:51.935Z,748
2018-07-27T03:53:53.574Z,800
2018-07-27T03:54:55.213Z,844
2018-07-27T03:55:56.852Z,900
2018-07-27T03:56:58.502Z,952
2018-07-27T03:58:00.145Z,1004
2018-07-27T03:59:01.795Z,1056
2018-07-27T04:00:03.495Z,1116
2018-07-27T04:01:05.107Z,1172
2018-07-27T04:02:06.789Z,1228
2018-07-27T04:03:08.398Z,1288
2018-07-27T04:04:10.044Z,1348
2018-07-27T04:05:11.677Z,1408
2018-07-27T04:06:13.323Z,1464
2018-07-27T04:07:15.018Z,1524
2018-07-27T04:08:16.615Z,1588
2018-07-27T04:09:18.258Z,1648
2018-07-27T04:10:19.899Z,1708
2018-07-27T04:11:21.559Z,1772
2018-07-27T04:12:23.198Z,1832
2018-07-27T04:13:24.843Z,1892
2018-07-27T04:14:26.492Z,1956
2018-07-27T04:15:28.130Z,2020
2018-07-27T04:16:29.776Z,2080
2018-07-27T04:17:31.417Z,2140
2018-07-27T04:18:33.077Z,2204
2018-07-27T04:19:34.709Z,2264
2018-07-27T04:20:36.354Z,2328
2018-07-27T04:21:37.994Z,2392
2018-07-27T04:22:39.645Z,2448
2018-07-27T04:23:41.283Z,2508
2018-07-27T04:24:42.921Z,2568
2018-07-27T04:25:46.413Z,2632
2018-07-27T04:26:48.064Z,2688
2018-07-27T04:27:49.699Z,2748
2018-07-27T04:28:51.349Z,2808
2018-07-27T04:29:52.994Z,2868
2018-07-27T04:30:54.641Z,2920
2018-07-27T04:31:56.283Z,2972
2018-07-27T04:32:57.928Z,3032
2018-07-27T04:33:59.577Z,3092
2018-07-27T04:35:01.226Z,3148
2018-07-27T04:36:02.873Z,3208
2018-07-27T04:37:04.517Z,3260
2018-07-27T04:38:06.159Z,3320
2018-07-27T04:39:07.812Z,3372
2018-07-27T04:40:09.461Z,3428
2018-07-27T04:41:11.108Z,3488
2018-07-27T04:42:12.746Z,3544
2018-07-27T04:43:14.402Z,3604
2018-07-27T04:44:16.043Z,3664
2018-07-27T04:45:17.689Z,3728
2018-07-27T04:46:19.319Z,3788
2018-07-27T04:47:20.962Z,3840
2018-07-27T04:48:22.611Z,3900
2018-07-27T04:49:24.285Z,3952
2018-07-27T04:50:25.897Z,4008
2018-07-27T04:51:27.555Z,4072
2018-07-27T04:52:29.206Z,4136
2018-07-27T04:53:30.845Z,4204
2018-07-27T04:54:32.491Z,4356
2018-07-27T04:55:34.141Z,5544
2018-07-27T04:56:35.849Z,7644
2018-07-27T04:57:37.428Z,9036
2018-07-27T04:58:39.078Z,9272
2018-07-27T04:59:40.726Z,9252
2018-07-27T05:00:42.364Z,9312
2018-07-27T05:01:44.013Z,9444
2018-07-27T05:02:45.689Z,9720
2018-07-27T05:03:47.342Z,9876
2018-07-27T05:04:49.029Z,10036
2018-07-27T05:05:50.629Z,10004
2018-07-27T05:06:53.167Z,9960
2018-07-27T05:07:54.802Z,10008
2018-07-27T05:08:56.450Z,10060
2018-07-27T05:09:58.123Z,10056
2018-07-27T05:10:59.768Z,10092
2018-07-27T05:12:01.421Z,10232
2018-07-27T05:13:03.072Z,10448
2018-07-27T05:14:04.718Z,10836
2018-07-27T05:15:06.375Z,11168
2018-07-27T05:16:08.024Z,11064
2018-07-27T05:17:09.677Z,10792
2018-07-27T05:18:11.381Z,10608
2018-07-27T05:19:12.965Z,10916
2018-07-27T05:20:14.622Z,11520
2018-07-27T05:21:16.267Z,11940
2018-07-27T05:22:17.921Z,12148
2018-07-27T05:23:19.565Z,12140
2018-07-27T05:24:21.216Z,12068
2018-07-27T05:25:22.869Z,12308
2018-07-27T05:26:24.518Z,12600
2018-07-27T05:27:26.176Z,12696
2018-07-27T05:28:27.830Z,12804
2018-07-27T05:29:29.481Z,12820
2018-07-27T05:30:31.135Z,12808
2018-07-27T05:31:32.779Z,13120
2018-07-27T05:32:34.454Z,13252
2018-07-27T05:33:36.116Z,13324
2018-07-27T05:34:37.763Z,13520
2018-07-27T05:35:39.417Z,14136
2018-07-27T05:36:41.064Z,15160
2018-07-27T05:37:42.716Z,15456
2018-07-27T05:38:44.362Z,15128
2018-07-27T05:39:46.020Z,14516
2018-07-27T05:40:47.668Z,14280
2018-07-27T05:41:49.323Z,14636
2018-07-27T05:42:50.975Z,15128
2018-07-27T05:43:52.626Z,15736
2018-07-27T05:44:54.273Z,16224
2018-07-27T05:45:55.932Z,16448
2018-07-27T05:46:57.630Z,16864
2018-07-27T05:47:59.240Z,17152
2018-07-27T05:49:00.911Z,17632
2018-07-27T05:50:02.566Z,17728
2018-07-27T05:51:04.211Z,17856
2018-07-27T05:52:05.869Z,17920
2018-07-27T05:53:07.523Z,18080
2018-07-27T05:54:09.182Z,18240
2018-07-27T05:55:10.839Z,19328
2018-07-27T05:56:12.502Z,20288
2018-07-27T06:02:01.163Z,21504
2018-07-27T06:03:02.849Z,21888
2018-07-27T06:04:54.711Z,23840
2018-07-27T06:05:56.350Z,24416
2018-07-27T06:07:48.186Z,25824
2018-07-27T06:08:49.848Z,29728
2018-07-27T06:10:41.655Z,35584
2018-07-27T06:11:43.304Z,34912
2018-07-27T06:12:44.952Z,32000
2018-07-27T06:13:46.609Z,27360
2018-07-27T06:14:48.257Z,24160
2018-07-27T06:15:49.917Z,21920
2018-07-27T06:16:51.578Z,20928
2018-07-27T06:17:53.314Z,20352
2018-07-27T06:18:54.886Z,20032
2018-07-27T06:19:56.535Z,19808
2018-07-27T06:20:58.260Z,19584
2018-07-27T06:21:59.820Z,19424
2018-07-27T06:23:01.482Z,19328
2018-07-27T06:24:03.151Z,19424
2018-07-27T06:25:04.760Z,19520
2018-07-27T06:26:06.414Z,19680
2018-07-27T06:27:08.063Z,19840
2018-07-27T06:28:09.760Z,20096
2018-07-27T06:29:11.413Z,20416
2018-07-27T06:30:13.051Z,20768
2018-07-27T06:31:14.693Z,21120
2018-07-27T06:32:16.356Z,21632
2018-07-27T06:33:18.006Z,21952
2018-07-27T06:34:19.657Z,22400
2018-07-27T06:35:21.317Z,23904
2018-07-27T06:36:22.995Z,27200
2018-07-27T06:37:24.646Z,31040
2018-07-27T06:38:26.300Z,35392
2018-07-27T06:39:27.959Z,39584
2018-07-27T06:40:29.612Z,38976
2018-07-27T06:41:31.276Z,38464
2018-07-27T06:42:32.932Z,39872
2018-07-27T06:43:34.591Z,40608
2018-07-27T06:44:36.247Z,41120
2018-07-27T06:45:38.298Z,42176
2018-07-27T06:46:39.956Z,40768
2018-07-27T06:47:41.625Z,40480
2018-07-27T06:48:43.277Z,39744
2018-07-27T06:49:45.722Z,42752
2018-07-27T06:50:47.384Z,47680
2018-07-27T06:51:49.041Z,48352
2018-07-27T06:52:50.753Z,48672
2018-07-27T06:53:52.457Z,49088
2018-07-27T06:54:54.122Z,49536
2018-07-27T06:55:55.774Z,51840
2018-07-27T06:56:57.438Z,54016
2018-07-27T06:57:59.679Z,53664
2018-07-27T06:59:01.559Z,54624
2018-07-27T07:00:03.828Z,54112
2018-07-27T07:01:05.538Z,55072
2018-07-27T07:02:07.753Z,58240
2018-07-27T07:03:09.418Z,59264
2018-07-27T07:04:11.085Z,59200
2018-07-27T07:05:14.083Z,59552
2018-07-27T07:06:15.712Z,60960
2018-07-27T07:07:17.387Z,60384
2018-07-27T07:08:19.040Z,59200
2018-07-27T07:09:21.385Z,60896
2018-07-27T07:10:23.052Z,63520
2018-07-27T07:11:24.718Z,64096
2018-07-27T07:12:26.379Z,63008
2018-07-27T07:13:28.042Z,62272
2018-07-27T07:14:29.749Z,64160
2018-07-27T07:15:31.327Z,64384
2018-07-27T07:16:32.997Z,64000
2018-07-27T07:17:34.643Z,65728
2018-07-27T07:18:36.305Z,66560
2018-07-27T07:19:38.040Z,66880
2018-07-27T07:20:39.696Z,66304
2018-07-27T07:21:41.354Z,67744
2018-07-27T07:22:43.032Z,67808
2018-07-27T07:23:44.711Z,68160
2018-07-27T07:24:46.374Z,70080
2018-07-27T07:25:48.215Z,71712
2018-07-27T07:26:49.675Z,72576
2018-07-27T07:27:51.348Z,72768
2018-07-27T07:28:53.010Z,71904
2018-07-27T07:29:54.691Z,74080
2018-07-27T07:30:56.345Z,74144
2018-07-27T07:31:58.069Z,74336
2018-07-27T07:32:59.718Z,75232
2018-07-27T07:34:01.381Z,76256
2018-07-27T07:35:03.039Z,77632
2018-07-27T07:36:04.707Z,78112
2018-07-27T07:37:06.955Z,79264
2018-07-27T07:38:08.614Z,80736
2018-07-27T07:39:10.299Z,79584
2018-07-27T07:40:11.955Z,78592
2018-07-27T07:41:13.612Z,79936
2018-07-27T07:42:15.280Z,81216
2018-07-27T07:43:17.335Z,81824
2018-07-27T07:44:19.018Z,81632
2018-07-27T07:45:20.899Z,83424
2018-07-27T07:46:22.570Z,84064
2018-07-27T07:47:24.264Z,83360
2018-07-27T07:48:26.182Z,83744
2018-07-27T07:49:27.701Z,85472
2018-07-27T07:50:29.368Z,86176
2018-07-27T07:51:31.039Z,85632
2018-07-27T07:52:32.734Z,86720
2018-07-27T07:53:34.423Z,87456
2018-07-27T07:54:36.095Z,86528
2018-07-27T07:55:37.766Z,85184
2018-07-27T07:56:39.439Z,86080
2018-07-27T07:57:41.115Z,86784
2018-07-27T07:58:42.811Z,83456
2018-07-27T07:59:44.434Z,83616
2018-07-27T08:00:46.122Z,84576
2018-07-27T08:01:47.783Z,81376
2018-07-27T08:02:49.449Z,81472
2018-07-27T08:03:51.118Z,84448
2018-07-27T08:04:52.873Z,85920
2018-07-27T08:05:54.567Z,86368
2018-07-27T08:06:56.203Z,84704
2018-07-27T08:07:57.864Z,82976
2018-07-27T08:08:59.539Z,82048
2018-07-27T08:10:01.227Z,81120
2018-07-27T08:11:02.923Z,80608
2018-07-27T08:12:04.562Z,78944
2018-07-27T08:13:06.225Z,76736
2018-07-27T08:14:07.888Z,78784
2018-07-27T08:15:09.548Z,82464
2018-07-27T08:16:11.210Z,81664
2018-07-27T08:17:12.964Z,80384
2018-07-27T08:18:14.613Z,76192
2018-07-27T08:19:16.323Z,72320
2018-07-27T08:20:17.992Z,75648
2018-07-27T08:21:21.601Z,80800
2018-07-27T08:22:24.072Z,83520
2018-07-27T08:23:25.729Z,85152
2018-07-27T08:24:27.395Z,86720
2018-07-27T08:25:29.051Z,85440
2018-07-27T08:26:30.718Z,84992
2018-07-27T08:27:32.390Z,86848
2018-07-27T08:28:34.077Z,88576
2018-07-27T08:29:35.773Z,89696
2018-07-27T08:30:37.449Z,90720
2018-07-27T08:31:39.110Z,90208
2018-07-27T08:32:40.793Z,87552
2018-07-27T08:33:42.446Z,88384
2018-07-27T08:34:44.116Z,88928
2018-07-27T08:35:45.780Z,91552
2018-07-27T08:36:47.444Z,91008
2018-07-27T08:37:49.110Z,90208
2018-07-27T08:38:50.782Z,89568
2018-07-27T08:39:52.438Z,90592
2018-07-27T08:40:54.123Z,93632
2018-07-27T08:41:55.777Z,97440
2018-07-27T08:42:57.437Z,97280
2018-07-27T08:43:59.097Z,95680
2018-07-27T08:45:00.755Z,97408
2018-07-27T08:46:02.413Z,100320
2018-07-27T08:47:04.080Z,102752
2018-07-27T08:48:05.747Z,100768
2018-07-27T08:49:07.431Z,99840
2018-07-27T08:50:09.096Z,103264
2018-07-27T08:51:10.775Z,107520
2018-07-27T08:52:12.436Z,110848
2018-07-27T08:53:14.106Z,113984
2018-07-27T08:54:15.788Z,113824
2018-07-27T08:55:17.435Z,110592
2018-07-27T08:56:19.133Z,109120
2018-07-27T08:57:20.768Z,112704
2018-07-27T08:58:22.451Z,119360
2018-07-27T08:59:24.133Z,121120
2018-07-27T09:00:25.806Z,119104
2018-07-27T09:01:27.574Z,120352
2018-07-27T09:02:30.242Z,120704
2018-07-27T09:03:32.293Z,122336
2018-07-27T09:04:33.975Z,124224
2018-07-27T09:05:35.658Z,123968
2018-07-27T09:06:37.327Z,125568
2018-07-27T09:07:38.998Z,127136
2018-07-27T09:08:40.687Z,127424
2018-07-27T09:09:42.397Z,129536
2018-07-27T09:10:44.115Z,127968
2018-07-27T09:11:45.796Z,126496
2018-07-27T09:12:48.241Z,126112
2018-07-27T09:13:49.928Z,128128
2018-07-27T09:14:51.591Z,132064
2018-07-27T09:15:53.262Z,132800
2018-07-27T09:16:54.928Z,134464
2018-07-27T09:17:56.597Z,136000
2018-07-27T09:18:58.271Z,136896
2018-07-27T09:19:59.930Z,136064
2018-07-27T09:21:01.598Z,133600
2018-07-27T09:22:03.652Z,130208
2018-07-27T09:23:05.316Z,129792
2018-07-27T09:24:06.996Z,132544
2018-07-27T09:25:08.727Z,133600
2018-07-27T09:26:10.325Z,133440
2018-07-27T09:27:11.989Z,131328
2018-07-27T09:28:13.845Z,127648
2018-07-27T09:29:16.194Z,125824
2018-07-27T09:30:18.256Z,129696
2018-07-27T09:31:19.940Z,131392
2018-07-27T09:32:21.659Z,127168
2018-07-27T09:33:23.377Z,127456
2018-07-27T09:34:25.041Z,128800
2018-07-27T09:35:28.225Z,129664
2018-07-27T09:36:29.881Z,129568
2018-07-27T09:37:31.544Z,126176
2018-07-27T09:38:33.513Z,123776
2018-07-27T09:39:35.219Z,122176
2018-07-27T09:40:37.386Z,121216
2018-07-27T09:41:39.152Z,119904
2018-07-27T09:42:41.193Z,119680
2018-07-27T09:43:43.100Z,122048
2018-07-27T09:44:44.760Z,119424
2018-07-27T09:45:46.460Z,119104
2018-07-27T09:46:48.122Z,118816
2018-07-27T09:47:49.793Z,118592
2018-07-27T09:48:51.463Z,115584
2018-07-27T09:49:53.131Z,111168
2018-07-27T09:50:54.791Z,106560
2018-07-27T09:51:57.290Z,102592
2018-07-27T09:52:58.954Z,99616
2018-07-27T09:54:00.617Z,95648
2018-07-27T09:55:02.288Z,91744
2018-07-27T10:01:29.726Z,95776
2018-07-27T10:02:31.391Z,93440
2018-07-27T10:04:23.278Z,94784
2018-07-27T10:05:24.942Z,95136
2018-07-27T10:07:16.883Z,98144
2018-07-27T10:08:18.583Z,96704
2018-07-27T10:09:20.248Z,95456
2018-07-27T10:10:21.908Z,94336
2018-07-27T10:11:23.570Z,93376
2018-07-27T10:12:25.231Z,91104
2018-07-27T10:13:26.894Z,90496
2018-07-27T10:14:28.563Z,91200
2018-07-27T10:15:30.465Z,91168
2018-07-27T10:16:32.124Z,90240
2018-07-27T10:17:33.791Z,92704
2018-07-27T10:18:35.485Z,92832
2018-07-27T10:19:37.076Z,93408
2018-07-27T10:20:38.743Z,94656
2018-07-27T10:21:40.412Z,91392
2018-07-27T10:22:42.078Z,92320
2018-07-27T10:23:43.737Z,95040
2018-07-27T10:24:45.408Z,96576
2018-07-27T10:25:47.070Z,97920
2018-07-27T10:26:48.735Z,99008
2018-07-27T10:27:50.402Z,99744
2018-07-27T10:28:52.081Z,100896
2018-07-27T10:29:53.748Z,101440
2018-07-27T10:30:55.418Z,102688
2018-07-27T10:31:57.078Z,101568
2018-07-27T10:32:58.739Z,103744
2018-07-27T10:34:00.413Z,104416
2018-07-27T10:35:02.814Z,102624
2018-07-27T10:36:05.264Z,101408
2018-07-27T10:37:06.904Z,98528
2018-07-27T10:38:08.573Z,91264
2018-07-27T10:39:10.237Z,95008
2018-07-27T10:40:11.918Z,103520
2018-07-27T10:41:13.598Z,107872
2018-07-27T10:42:15.259Z,109984
2018-07-27T10:43:16.933Z,112128
2018-07-27T10:44:18.605Z,110304
2018-07-27T10:45:20.269Z,109824
2018-07-27T10:46:21.946Z,110624
2018-07-27T10:47:23.604Z,113152
2018-07-27T10:48:25.273Z,114944
2018-07-27T10:49:26.942Z,115488
2018-07-27T10:50:28.618Z,117504
2018-07-27T10:51:30.285Z,122784
2018-07-27T10:52:31.940Z,124192
2018-07-27T10:53:33.624Z,118112
2018-07-27T10:54:35.282Z,117952
2018-07-27T10:55:36.965Z,122720
2018-07-27T10:56:38.636Z,125696
2018-07-27T10:57:40.306Z,126016
2018-07-27T10:58:42.183Z,127104
2018-07-27T10:59:43.836Z,130720
2018-07-27T11:00:45.507Z,134112
2018-07-27T11:01:47.171Z,136672
2018-07-27T11:02:48.841Z,136160
2018-07-27T11:03:50.511Z,136480
2018-07-27T11:04:52.181Z,140672
2018-07-27T11:05:53.842Z,141440
2018-07-27T11:06:55.508Z,141504
2018-07-27T11:07:57.209Z,144896
2018-07-27T11:08:58.875Z,146400
2018-07-27T11:10:00.543Z,146816
2018-07-27T11:11:02.215Z,146752
2018-07-27T11:12:03.888Z,148768
2018-07-27T11:13:05.619Z,150784
2018-07-27T11:14:07.291Z,147136
2018-07-27T11:15:09.380Z,143616
2018-07-27T11:16:10.993Z,149152
2018-07-27T11:17:12.680Z,155136
2018-07-27T11:18:14.336Z,155744
2018-07-27T11:19:15.998Z,150784
2018-07-27T11:20:17.657Z,148384
2018-07-27T11:21:19.360Z,149888
2018-07-27T11:22:21.029Z,148448
2018-07-27T11:23:22.686Z,147008
2018-07-27T11:24:24.355Z,141664
2018-07-27T11:25:26.040Z,139488
2018-07-27T11:26:27.720Z,139776
2018-07-27T11:27:29.393Z,140832
2018-07-27T11:28:31.053Z,145248
2018-07-27T11:29:32.728Z,148832
2018-07-27T11:30:34.444Z,109216
2018-07-27T11:31:36.119Z,120096
2018-07-27T11:32:37.789Z,131840
2018-07-27T11:33:39.452Z,142272
2018-07-27T11:34:41.122Z,146208
2018-07-27T11:35:42.823Z,144256
2018-07-27T11:36:44.486Z,140896
2018-07-27T11:37:46.153Z,138912
2018-07-27T11:38:47.813Z,135328
2018-07-27T11:39:49.506Z,130144
2018-07-27T11:40:51.196Z,131200
2018-07-27T11:41:52.851Z,131872
2018-07-27T11:42:54.508Z,134080
2018-07-27T11:43:56.177Z,135040
2018-07-27T11:44:57.852Z,131104
2018-07-27T11:45:59.522Z,130880
2018-07-27T11:47:01.189Z,130656
2018-07-27T11:48:02.917Z,126496
2018-07-27T11:49:04.618Z,121536
2018-07-27T11:50:06.288Z,116064
2018-07-27T11:51:07.956Z,120416
2018-07-27T11:52:09.648Z,118560
2018-07-27T11:53:11.336Z,112672
2018-07-27T11:54:13.016Z,113216
2018-07-27T11:55:14.728Z,115808
2018-07-27T11:56:16.395Z,113952
2018-07-27T11:57:18.064Z,115040
2018-07-27T11:58:19.729Z,114464
2018-07-27T11:59:21.439Z,111264
2018-07-27T12:00:23.217Z,109664
2018-07-27T12:01:24.786Z,114880
2018-07-27T12:02:26.496Z,116416
2018-07-27T12:03:28.174Z,112960
2018-07-27T12:04:29.834Z,109344
2018-07-27T12:05:31.526Z,109120
2018-07-27T12:06:33.187Z,107424
2018-07-27T12:07:34.858Z,107328
2018-07-27T12:08:36.523Z,107872
2018-07-27T12:09:38.214Z,89600
2018-07-27T12:10:39.864Z,62176
2018-07-27T12:11:41.542Z,21216
2018-07-27T12:12:43.205Z,13844
2018-07-27T12:13:44.873Z,16820
2018-07-27T12:14:46.666Z,58304
2018-07-27T12:15:48.228Z,96192
2018-07-27T12:16:50.692Z,97184
2018-07-27T12:17:52.362Z,94112
2018-07-27T12:18:54.033Z,91200
2018-07-27T12:19:55.689Z,94080
2018-07-27T12:20:57.486Z,94496
2018-07-27T12:21:59.032Z,94080
2018-07-27T12:23:00.688Z,96832
2018-07-27T12:24:02.403Z,100224
2018-07-27T12:25:04.076Z,99040
2018-07-27T12:26:05.779Z,100960
2018-07-27T12:27:07.456Z,103840
2018-07-27T12:28:09.109Z,108480
2018-07-27T12:29:10.780Z,111680
2018-07-27T12:30:12.448Z,108864
2018-07-27T12:31:14.134Z,103968
2018-07-27T12:32:15.791Z,101376
2018-07-27T12:33:17.468Z,99744
2018-07-27T12:34:19.136Z,102336
2018-07-27T12:35:20.817Z,102464
2018-07-27T12:36:23.147Z,104736
2018-07-27T12:37:24.815Z,102528
2018-07-27T12:38:26.483Z,99808
2018-07-27T12:39:28.150Z,99488
2018-07-27T12:40:31.250Z,101440
2018-07-27T12:41:34.036Z,104896
2018-07-27T12:42:37.252Z,106240
2018-07-27T12:43:38.854Z,104224
2018-07-27T12:44:41.764Z,102944
2018-07-27T12:45:43.316Z,97760
2018-07-27T12:46:44.994Z,101728
2018-07-27T12:47:46.660Z,106336
2018-07-27T12:48:48.332Z,108416
2018-07-27T12:49:50.198Z,107136
2018-07-27T12:50:51.879Z,106496
2018-07-27T12:51:53.582Z,106080
2018-07-27T12:53:03.919Z,107616
2018-07-27T12:54:05.588Z,110368
2018-07-27T12:55:07.250Z,112448
2018-07-27T12:56:08.910Z,111968
2018-07-27T12:57:10.582Z,106816
2018-07-27T12:58:12.267Z,104544
2018-07-27T12:59:13.956Z,107008
2018-07-27T13:00:15.658Z,108288
2018-07-27T13:01:17.300Z,109408
2018-07-27T13:02:18.973Z,115680
2018-07-27T13:03:20.675Z,120672
2018-07-27T13:04:22.342Z,115712
2018-07-27T13:05:24.090Z,96384
2018-07-27T13:06:25.698Z,29568
2018-07-27T13:07:27.711Z,108320
2018-07-27T13:08:29.372Z,109568
2018-07-27T13:09:31.030Z,108352
2018-07-27T13:10:32.705Z,115136
2018-07-27T13:11:34.371Z,119136
2018-07-27T13:12:36.046Z,121888
2018-07-27T13:13:37.719Z,122496
2018-07-27T13:14:39.397Z,118112
2018-07-27T13:15:41.066Z,119488
2018-07-27T13:16:42.735Z,123488
2018-07-27T13:17:44.406Z,122432
2018-07-27T13:18:46.078Z,122944
2018-07-27T13:19:47.737Z,121152
2018-07-27T13:20:49.406Z,124640
2018-07-27T13:21:51.157Z,128160
2018-07-27T13:22:52.799Z,126336
2018-07-27T13:23:54.462Z,125824
2018-07-27T14:01:04.731Z,52128
2018-07-27T14:02:06.429Z,46368
2018-07-27T14:03:08.095Z,20992
2018-07-27T14:04:09.776Z,30752
2018-07-27T14:05:11.478Z,73376
2018-07-27T14:06:13.207Z,24480
2018-07-27T14:07:14.816Z,18668
2018-07-27T14:08:16.483Z,21696
2018-07-27T14:09:18.192Z,17904
2018-07-27T14:10:19.844Z,24768
2018-07-27T14:11:21.505Z,36768
2018-07-27T14:12:23.179Z,23264
2018-07-27T14:13:24.845Z,33120
2018-07-27T14:14:26.512Z,37600
2018-07-27T14:15:28.177Z,21760
2018-07-27T14:16:29.835Z,17920
2018-07-27T14:17:31.495Z,17792
2018-07-27T14:18:33.186Z,15820
2018-07-27T14:19:34.850Z,18192
2018-07-27T14:20:36.513Z,40320
2018-07-27T14:21:38.237Z,41568
2018-07-27T14:22:40.095Z,49728
2018-07-27T14:23:41.796Z,49824
2018-07-27T14:24:43.412Z,48544
2018-07-27T14:25:45.080Z,46816
2018-07-27T14:26:46.734Z,46208
2018-07-27T14:27:48.400Z,50368
2018-07-27T14:28:50.073Z,50240
2018-07-27T14:29:51.741Z,48640
2018-07-27T14:30:53.397Z,48096
2018-07-27T14:31:55.067Z,48928
2018-07-27T14:32:56.734Z,49472
2018-07-27T14:33:58.399Z,52480
2018-07-27T14:35:00.064Z,50688